KAOH/AOH METAR and TAF weather

Enter ICAO airport designator
Station Type Date Time Source
KAOH METAR 2022/01/26 13:53 UTC NOAA

KAOH 261353Z AUTO 24009KT 9SM CLR M19/M22 A3044 RMK AO2 SLP331 T11891222


Station Type Date Time Source
KAOH Decoded METAR 2022/01/26 13:53 UTC NOAA

LIMA ALLEN COUNTY AIRPORT, OH, United States (KAOH) 40-42N 84-01W 296M
Jan 26, 2022 - 08:53 AM EST / 2022.01.26 1353 UTC
Wind: from the WSW (240 degrees) at 10 MPH (9 KT):0
Visibility: 9 mile(s):0
Sky conditions: clear
Temperature: -2.0 F (-18.9 C)
Windchill: -18 F (-28 C):2
Dew Point: -8.0 F (-22.2 C)
Relative Humidity: 75%
Pressure (altimeter): 30.44 in. Hg (1030 hPa)
ob: KAOH 261353Z AUTO 24009KT 9SM CLR M19/M22 A3044 RMK AO2 SLP331 T11891222
cycle: 14

Station Type Date Time Source
KAOH TAF UTC NOAA

Error!

Example: see airport list